createdAt,value
2022-12-14T00:01:36.975Z,-2.60
2022-12-14T00:04:04.017Z,-2.70
2022-12-14T00:06:32.745Z,-2.60
2022-12-14T00:09:01.963Z,-2.60
2022-12-14T00:11:28.812Z,-2.60
2022-12-14T00:14:01.160Z,-2.60
2022-12-14T00:16:30.083Z,-2.70
2022-12-14T00:18:58.890Z,-2.70
2022-12-14T00:21:26.948Z,-2.60
2022-12-14T00:23:54.550Z,-2.50
2022-12-14T00:26:23.770Z,-2.60
2022-12-14T00:28:52.457Z,-2.70
2022-12-14T00:31:20.629Z,-2.70
2022-12-14T00:33:47.625Z,-2.70
2022-12-14T00:36:14.783Z,-2.50
2022-12-14T00:38:42.424Z,-2.50
2022-12-14T00:41:10.650Z,-2.50
2022-12-14T00:43:38.106Z,-2.50
2022-12-14T00:46:05.438Z,-2.40
2022-12-14T00:48:32.855Z,-2.40
2022-12-14T00:50:59.954Z,-2.50
2022-12-14T00:53:26.837Z,-2.40
2022-12-14T00:55:53.657Z,-2.40
2022-12-14T00:58:22.680Z,-2.50
2022-12-14T01:01:04.151Z,-2.50
2022-12-14T01:03:31.740Z,-2.50
2022-12-14T01:05:59.070Z,-2.60
2022-12-14T01:08:25.823Z,-2.80
2022-12-14T01:10:53.182Z,-2.90
2022-12-14T01:13:19.961Z,-2.80
2022-12-14T01:15:46.971Z,-2.80
2022-12-14T01:18:13.980Z,-2.80
2022-12-14T01:20:40.757Z,-2.80
2022-12-14T01:23:07.753Z,-2.70
2022-12-14T01:25:34.543Z,-2.60
2022-12-14T01:28:01.474Z,-2.50
2022-12-14T01:30:28.168Z,-2.70
2022-12-14T01:32:55.049Z,-3.20
2022-12-14T01:35:21.820Z,-3.20
2022-12-14T01:37:49.191Z,-3.10
2022-12-14T01:40:16.489Z,-3.20
2022-12-14T01:42:43.431Z,-3.20
2022-12-14T01:45:22.046Z,-3.30
2022-12-14T01:47:55.097Z,-3.20
2022-12-14T01:50:37.078Z,-3.10
2022-12-14T01:53:12.233Z,-2.90
2022-12-14T01:55:49.068Z,-2.90
2022-12-14T01:58:18.665Z,-2.80
2022-12-14T02:00:45.533Z,-2.70
2022-12-14T02:03:23.427Z,-2.80
2022-12-14T02:05:59.274Z,-2.90
2022-12-14T02:08:26.736Z,-3.20
2022-12-14T02:10:55.621Z,-3.30
2022-12-14T02:13:35.552Z,-3.10
2022-12-14T02:16:02.549Z,-2.90
2022-12-14T02:18:31.393Z,-2.70
2022-12-14T02:21:07.012Z,-2.70
2022-12-14T02:23:57.666Z,-2.60
2022-12-14T02:26:55.234Z,-2.50
2022-12-14T02:29:24.695Z,-2.40
2022-12-14T02:32:11.072Z,-2.60
2022-12-14T02:35:05.536Z,-2.80
2022-12-14T02:37:32.198Z,-2.90
2022-12-14T02:40:05.771Z,-2.90
2022-12-14T02:42:45.761Z,-2.90
2022-12-14T02:45:37.041Z,-2.90
2022-12-14T02:48:10.161Z,-2.90
2022-12-14T02:51:01.272Z,-2.80
2022-12-14T02:54:23.895Z,-2.70
2022-12-14T02:56:56.328Z,-2.50
2022-12-14T02:59:24.773Z,-2.40
2022-12-14T03:01:52.683Z,-2.30
2022-12-14T03:04:20.461Z,-2.30
2022-12-14T03:07:02.695Z,-2.20
2022-12-14T03:09:31.585Z,-2.20
2022-12-14T03:12:07.438Z,-2.10
2022-12-14T03:14:45.852Z,-2.00
2022-12-14T03:17:23.823Z,-2.30
2022-12-14T03:19:55.944Z,-2.40
2022-12-14T03:22:47.937Z,-2.50
2022-12-14T03:25:19.759Z,-2.40
2022-12-14T03:28:03.645Z,-2.40
2022-12-14T03:30:58.923Z,-2.40
2022-12-14T03:33:23.919Z,-2.30
2022-12-14T03:36:00.027Z,-2.20
2022-12-14T03:38:48.862Z,-2.20
2022-12-14T03:41:24.552Z,-2.10
2022-12-14T03:43:54.378Z,-2.20
2022-12-14T03:46:31.906Z,-2.10
2022-12-14T03:49:20.293Z,-2.10
2022-12-14T03:52:22.446Z,-2.10
2022-12-14T03:55:06.040Z,-2.20
2022-12-14T03:57:54.287Z,-2.20
2022-12-14T04:00:23.580Z,-2.20
2022-12-14T04:03:10.473Z,-2.10
2022-12-14T04:05:49.147Z,-2.10
2022-12-14T04:08:24.792Z,-2.10
2022-12-14T04:11:13.885Z,-2.30
2022-12-14T04:14:03.895Z,-2.30
2022-12-14T04:16:54.056Z,-2.30
2022-12-14T04:19:31.808Z,-2.60
2022-12-14T04:22:04.579Z,-2.70
2022-12-14T04:25:12.943Z,-2.70
2022-12-14T04:27:54.934Z,-2.50
2022-12-14T04:30:23.139Z,-2.50
2022-12-14T04:32:49.889Z,-2.40
2022-12-14T04:35:32.100Z,-2.50
2022-12-14T04:38:13.537Z,-2.40
2022-12-14T04:40:53.497Z,-2.40
2022-12-14T04:43:24.258Z,-2.30
2022-12-14T04:46:14.685Z,-2.20
2022-12-14T04:49:18.778Z,-2.20
2022-12-14T04:52:01.970Z,-2.20
2022-12-14T04:57:38.784Z,-2.10
2022-12-14T05:00:05.457Z,-2.20
2022-12-14T05:02:50.340Z,-2.20
2022-12-14T05:05:27.801Z,-2.10
2022-12-14T05:08:01.839Z,-2.10
2022-12-14T05:11:21.815Z,-2.20
2022-12-14T05:13:50.426Z,-2.20
2022-12-14T05:16:23.287Z,-2.20
2022-12-14T05:18:50.164Z,-2.20
2022-12-14T05:21:35.608Z,-2.10
2022-12-14T05:24:04.286Z,-2.00
2022-12-14T05:26:31.479Z,-2.00
2022-12-14T05:28:58.225Z,-2.00
2022-12-14T05:31:25.811Z,-2.00
2022-12-14T05:37:43.311Z,-2.20
2022-12-14T05:40:11.177Z,-2.20
2022-12-14T05:42:42.726Z,-2.10
2022-12-14T05:45:15.348Z,-2.10
2022-12-14T05:47:41.969Z,-2.00
2022-12-14T05:50:09.045Z,-2.10
2022-12-14T05:52:35.709Z,-2.00
2022-12-14T05:55:04.377Z,-1.90
2022-12-14T05:57:31.994Z,-1.80
2022-12-14T05:59:58.618Z,-1.80
2022-12-14T06:02:25.339Z,-1.80
2022-12-14T06:04:52.241Z,-1.70
2022-12-14T06:07:21.771Z,-1.90
2022-12-14T06:09:52.613Z,-1.90
2022-12-14T06:12:19.335Z,-1.90
2022-12-14T06:16:28.285Z,-1.90
2022-12-14T06:18:56.630Z,-1.70
2022-12-14T06:21:25.976Z,-1.80
2022-12-14T06:23:52.951Z,-1.80
2022-12-14T06:26:19.859Z,-1.80
2022-12-14T06:28:46.519Z,-1.90
2022-12-14T06:31:19.044Z,-2.00
2022-12-14T06:33:46.241Z,-2.00
2022-12-14T06:36:23.566Z,-1.90
2022-12-14T06:38:51.571Z,-1.90
2022-12-14T06:41:25.611Z,-1.90
2022-12-14T06:43:53.643Z,-2.00
2022-12-14T06:46:22.275Z,-2.00
2022-12-14T06:48:54.277Z,-2.10
2022-12-14T06:51:22.758Z,-2.10
2022-12-14T06:53:54.599Z,-2.00
2022-12-14T06:56:22.755Z,-2.20
2022-12-14T06:58:49.838Z,-2.10
2022-12-14T07:01:19.435Z,-2.00
2022-12-14T07:03:55.111Z,-1.90
2022-12-14T07:06:27.121Z,-1.80
2022-12-14T07:08:55.565Z,-1.60
2022-12-14T07:11:22.570Z,-1.50
2022-12-14T07:13:49.367Z,-1.60
2022-12-14T07:16:19.666Z,-1.70
2022-12-14T07:18:46.737Z,-1.70
2022-12-14T07:21:15.347Z,-1.70
2022-12-14T07:23:43.656Z,-1.80
2022-12-14T07:26:27.675Z,-2.00
2022-12-14T07:28:55.087Z,-1.90
2022-12-14T07:31:27.132Z,-1.90
2022-12-14T07:33:59.421Z,-1.90
2022-12-14T07:36:28.226Z,-1.80
2022-12-14T07:38:56.031Z,-1.60
2022-12-14T07:41:29.409Z,-1.60
2022-12-14T07:43:56.572Z,-1.40
2022-12-14T07:46:26.707Z,-1.40
2022-12-14T07:48:56.123Z,-1.40
2022-12-14T07:51:26.685Z,-1.30
2022-12-14T07:53:53.592Z,-1.30
2022-12-14T07:56:23.403Z,-1.40
2022-12-14T07:58:50.295Z,-1.20
2022-12-14T08:01:22.287Z,-1.30
2022-12-14T08:03:55.320Z,-1.40
2022-12-14T08:06:24.411Z,-1.50
2022-12-14T08:08:52.460Z,-1.60
2022-12-14T08:11:22.280Z,-1.60
2022-12-14T08:13:54.011Z,-1.40
2022-12-14T08:16:21.285Z,-1.20
2022-12-14T08:18:48.052Z,-1.10
2022-12-14T08:21:15.772Z,-1.00
2022-12-14T08:23:42.548Z,-0.90
2022-12-14T08:26:12.670Z,-0.90
2022-12-14T08:28:39.413Z,-0.90
2022-12-14T08:31:13.975Z,-1.00
2022-12-14T08:33:41.708Z,-0.90
2022-12-14T08:36:10.761Z,-0.80
2022-12-14T08:38:38.878Z,-0.80
2022-12-14T08:41:11.204Z,-0.80
2022-12-14T08:43:38.839Z,-0.90
2022-12-14T08:46:06.328Z,-0.90
2022-12-14T08:48:32.980Z,-0.90
2022-12-14T08:51:04.602Z,-1.00
2022-12-14T08:53:32.157Z,-1.00
2022-12-14T08:56:04.941Z,-0.90
2022-12-14T08:58:31.644Z,-0.80
2022-12-14T09:01:03.504Z,-0.70
2022-12-14T09:03:30.727Z,-0.70
2022-12-14T09:06:01.086Z,-0.70
2022-12-14T09:08:27.916Z,-0.70
2022-12-14T09:10:54.626Z,-0.50
2022-12-14T09:13:21.346Z,-0.50
2022-12-14T09:15:59.932Z,-0.40
2022-12-14T09:18:28.011Z,-0.40
2022-12-14T09:20:55.904Z,-0.40
2022-12-14T09:23:24.356Z,-0.40
2022-12-14T09:26:14.452Z,-0.40
2022-12-14T09:28:42.881Z,-0.30
2022-12-14T09:31:14.468Z,-0.30
2022-12-14T09:33:41.741Z,-0.30
2022-12-14T09:36:19.766Z,-0.50
2022-12-14T09:38:50.889Z,-0.50
2022-12-14T09:41:34.663Z,-0.50
2022-12-14T09:44:24.836Z,-0.50
2022-12-14T09:47:17.948Z,-0.50
2022-12-14T09:50:10.245Z,-0.60
2022-12-14T09:52:40.061Z,-0.50
2022-12-14T09:55:34.384Z,-0.40
2022-12-14T09:58:32.517Z,-0.20
2022-12-14T10:01:22.794Z,0.00
2022-12-14T10:04:09.383Z,0.00
2022-12-14T10:07:10.479Z,0.00
2022-12-14T10:09:37.186Z,-0.70
2022-12-14T10:12:22.563Z,-0.70
2022-12-14T10:14:52.109Z,-0.50
2022-12-14T10:17:31.212Z,-0.50
2022-12-14T10:20:04.759Z,-0.20
2022-12-14T10:22:46.612Z,-0.20
2022-12-14T10:25:18.228Z,-0.20
2022-12-14T10:28:13.835Z,0.00
2022-12-14T10:30:42.481Z,0.20
2022-12-14T10:33:31.480Z,0.30
2022-12-14T10:36:23.109Z,0.40
2022-12-14T10:39:02.457Z,0.60
2022-12-14T10:41:59.436Z,0.70
2022-12-14T10:44:44.487Z,0.70
2022-12-14T10:47:29.796Z,0.70
2022-12-14T10:50:22.280Z,0.70
2022-12-14T10:52:53.529Z,0.70
2022-12-14T10:55:32.681Z,0.70
2022-12-14T10:58:00.781Z,0.50
2022-12-14T11:00:28.026Z,0.50
2022-12-14T11:02:57.611Z,0.50
2022-12-14T11:05:38.533Z,0.50
2022-12-14T11:08:07.564Z,0.50
2022-12-14T11:10:37.078Z,0.60
2022-12-14T11:13:16.983Z,0.60
2022-12-14T11:15:49.708Z,0.60
2022-12-14T11:18:16.545Z,0.40
2022-12-14T11:21:01.466Z,0.40
2022-12-14T11:23:29.554Z,0.30
2022-12-14T11:26:01.249Z,0.20
2022-12-14T11:28:37.914Z,0.20
2022-12-14T11:31:25.102Z,0.30
2022-12-14T11:33:54.982Z,0.20
2022-12-14T11:36:41.670Z,0.30
2022-12-14T11:39:14.530Z,0.40
2022-12-14T11:41:44.685Z,0.40
2022-12-14T11:44:14.412Z,0.10
2022-12-14T11:46:59.298Z,0.20
2022-12-14T11:49:33.559Z,0.30
2022-12-14T11:52:05.981Z,0.40
2022-12-14T11:54:41.032Z,0.30
2022-12-14T11:57:14.022Z,0.20
2022-12-14T12:00:00.119Z,0.00
2022-12-14T12:02:49.041Z,-0.10
2022-12-14T12:05:19.735Z,-0.10
2022-12-14T12:07:49.476Z,0.00
2022-12-14T12:10:36.286Z,0.00
2022-12-14T12:13:17.180Z,-0.10
2022-12-14T12:15:54.506Z,0.00
2022-12-14T12:18:31.567Z,0.10
2022-12-14T12:21:18.337Z,0.00
2022-12-14T12:24:06.797Z,0.10
2022-12-14T12:27:12.114Z,0.00
2022-12-14T12:29:56.961Z,0.10
2022-12-14T12:32:41.956Z,0.30
2022-12-14T12:35:23.157Z,0.30
2022-12-14T12:38:16.877Z,0.30
2022-12-14T12:40:43.514Z,0.30
2022-12-14T12:43:20.287Z,0.40
2022-12-14T12:45:53.691Z,0.40
2022-12-14T12:48:29.841Z,0.40
2022-12-14T12:51:07.258Z,0.40
2022-12-14T12:53:39.929Z,0.50
2022-12-14T12:56:23.292Z,0.60
2022-12-14T12:58:53.193Z,0.60
2022-12-14T13:01:38.978Z,0.70
2022-12-14T13:04:10.939Z,0.70
2022-12-14T13:06:53.193Z,0.70
2022-12-14T13:09:35.275Z,0.60
2022-12-14T13:12:03.657Z,0.50
2022-12-14T13:14:44.349Z,0.50
2022-12-14T13:17:25.341Z,0.70
2022-12-14T13:19:55.425Z,0.60
2022-12-14T13:22:29.290Z,0.70
2022-12-14T13:25:02.871Z,0.70
2022-12-14T13:27:37.389Z,0.80
2022-12-14T13:30:34.794Z,0.70
2022-12-14T13:33:07.312Z,0.80
2022-12-14T13:35:53.591Z,0.80
2022-12-14T13:38:33.768Z,1.00
2022-12-14T13:41:13.029Z,1.10
2022-12-14T13:44:31.088Z,1.10
2022-12-14T13:47:06.136Z,1.20
2022-12-14T13:49:34.034Z,1.30
2022-12-14T13:52:01.309Z,1.30
2022-12-14T13:54:35.434Z,1.30
2022-12-14T13:57:06.543Z,1.40
2022-12-14T13:59:38.091Z,1.40
2022-12-14T14:02:06.716Z,1.30
2022-12-14T14:04:35.859Z,1.40
2022-12-14T14:07:24.558Z,1.30
2022-12-14T14:10:05.996Z,1.30
2022-12-14T14:12:34.443Z,1.30
2022-12-14T14:15:26.904Z,1.50
2022-12-14T14:17:55.185Z,1.60
2022-12-14T14:20:30.857Z,1.60
2022-12-14T14:23:18.542Z,1.60
2022-12-14T14:26:10.163Z,1.60
2022-12-14T14:28:38.147Z,1.70
2022-12-14T14:31:05.636Z,1.70
2022-12-14T14:33:48.953Z,1.70
2022-12-14T14:36:33.372Z,1.70
2022-12-14T14:39:02.504Z,1.70
2022-12-14T14:41:38.173Z,1.60
2022-12-14T14:44:16.133Z,1.70
2022-12-14T14:46:47.165Z,1.60
2022-12-14T14:49:28.891Z,1.70
2022-12-14T14:51:55.775Z,1.70
2022-12-14T14:55:11.126Z,1.80
2022-12-14T14:57:34.425Z,1.70
2022-12-14T15:00:03.579Z,1.80
2022-12-14T15:02:34.254Z,1.80
2022-12-14T15:07:49.204Z,1.80
2022-12-14T15:10:22.927Z,1.80
2022-12-14T15:12:53.463Z,1.60
2022-12-14T15:15:32.284Z,1.60
2022-12-14T15:18:24.228Z,1.60
2022-12-14T15:21:02.519Z,1.70
2022-12-14T15:23:36.704Z,1.70
2022-12-14T15:26:16.233Z,1.60
2022-12-14T15:28:46.208Z,1.70
2022-12-14T15:31:13.761Z,1.70
2022-12-14T15:33:43.230Z,1.50
2022-12-14T15:36:16.993Z,1.40
2022-12-14T15:38:55.637Z,1.60
2022-12-14T15:41:25.526Z,1.70
2022-12-14T15:43:55.096Z,1.70
2022-12-14T15:46:33.256Z,1.80
2022-12-14T15:49:08.238Z,1.80
2022-12-14T15:51:42.074Z,1.90
2022-12-14T15:54:18.052Z,1.90
2022-12-14T15:56:47.432Z,1.90
2022-12-14T15:59:21.340Z,1.90
2022-12-14T16:01:55.941Z,1.80
2022-12-14T16:04:27.968Z,1.70
2022-12-14T16:07:08.950Z,1.70
2022-12-14T16:09:50.007Z,1.70
2022-12-14T16:12:44.212Z,1.80
2022-12-14T16:15:24.191Z,1.80
2022-12-14T16:17:59.262Z,1.70
2022-12-14T16:20:31.958Z,1.70
2022-12-14T16:23:22.261Z,1.80
2022-12-14T16:26:15.604Z,1.80
2022-12-14T16:28:42.822Z,1.90
2022-12-14T16:31:24.238Z,1.70
2022-12-14T16:34:18.932Z,1.80
2022-12-14T16:37:08.066Z,1.80
2022-12-14T16:39:46.356Z,1.80
2022-12-14T16:42:24.771Z,1.90
2022-12-14T16:44:54.092Z,2.00
2022-12-14T16:47:20.867Z,2.00
2022-12-14T16:49:55.120Z,2.10
2022-12-14T16:52:26.408Z,2.10
2022-12-14T16:55:16.213Z,1.90
2022-12-14T16:57:48.991Z,2.00
2022-12-14T17:00:38.586Z,2.00
2022-12-14T17:03:23.215Z,2.00
2022-12-14T17:05:53.909Z,2.00
2022-12-14T17:08:20.669Z,2.00
2022-12-14T17:10:47.396Z,2.00
2022-12-14T17:13:14.291Z,1.90
2022-12-14T17:16:01.368Z,2.00
2022-12-14T17:18:33.389Z,2.10
2022-12-14T17:21:01.316Z,2.10
2022-12-14T17:23:28.916Z,2.10
2022-12-14T17:25:55.774Z,2.10
2022-12-14T17:28:27.173Z,2.10
2022-12-14T17:30:57.366Z,2.10
2022-12-14T17:33:28.781Z,2.20
2022-12-14T17:35:56.185Z,2.20
2022-12-14T17:38:23.609Z,2.20
2022-12-14T17:40:51.553Z,2.20
2022-12-14T17:43:21.842Z,2.10
2022-12-14T17:45:48.570Z,2.00
2022-12-14T17:48:17.403Z,2.00
2022-12-14T17:50:47.632Z,2.10
2022-12-14T17:53:17.206Z,2.10
2022-12-14T17:55:44.331Z,2.20
2022-12-14T17:58:11.540Z,2.00
2022-12-14T18:01:03.063Z,1.90
2022-12-14T18:03:36.174Z,2.00
2022-12-14T18:06:04.603Z,2.00
2022-12-14T18:08:31.423Z,2.00
2022-12-14T18:11:01.654Z,2.10
2022-12-14T18:13:31.306Z,2.20
2022-12-14T18:16:00.139Z,2.20
2022-12-14T18:18:29.399Z,2.20
2022-12-14T18:21:01.832Z,2.30
2022-12-14T18:23:29.908Z,2.20
2022-12-14T18:25:59.280Z,2.20
2022-12-14T18:28:26.405Z,2.30
2022-12-14T18:31:06.586Z,2.30
2022-12-14T18:33:35.194Z,2.20
2022-12-14T18:36:02.029Z,2.10
2022-12-14T18:38:28.874Z,2.20
2022-12-14T18:40:58.594Z,2.30
2022-12-14T18:43:27.973Z,2.30
2022-12-14T18:45:56.274Z,2.30
2022-12-14T18:48:24.768Z,2.40
2022-12-14T18:50:53.904Z,2.40
2022-12-14T18:53:23.169Z,2.40
2022-12-14T18:55:50.254Z,2.40
2022-12-14T18:58:20.284Z,2.50
2022-12-14T19:00:47.511Z,2.40
2022-12-14T19:03:15.455Z,2.40
2022-12-14T19:05:42.344Z,2.40
2022-12-14T19:08:10.472Z,2.40
2022-12-14T19:10:42.468Z,2.40
2022-12-14T19:13:23.250Z,2.30
2022-12-14T19:15:52.143Z,2.20
2022-12-14T19:18:18.935Z,2.20
2022-12-14T19:20:45.870Z,2.20
2022-12-14T19:23:17.842Z,2.20
2022-12-14T19:25:45.325Z,2.10
2022-12-14T19:28:32.586Z,2.10
2022-12-14T19:30:59.751Z,2.20
2022-12-14T19:33:26.786Z,2.20
2022-12-14T19:35:54.233Z,2.30
2022-12-14T19:38:20.941Z,2.20
2022-12-14T19:41:03.231Z,2.20
2022-12-14T19:43:30.944Z,2.30
2022-12-14T19:45:58.529Z,2.40
2022-12-14T19:48:25.353Z,2.40
2022-12-14T19:50:52.244Z,2.30
2022-12-14T19:53:23.792Z,2.30
2022-12-14T19:55:52.781Z,2.30
2022-12-14T19:58:21.912Z,2.30
2022-12-14T20:00:49.964Z,2.30
2022-12-14T20:03:17.045Z,2.30
2022-12-14T20:06:04.788Z,2.20
2022-12-14T20:08:33.160Z,2.20
2022-12-14T20:11:04.904Z,2.10
2022-12-14T20:13:32.030Z,2.10
2022-12-14T20:15:59.389Z,2.20
2022-12-14T20:18:27.541Z,2.00
2022-12-14T20:21:02.278Z,2.00
2022-12-14T20:23:29.423Z,2.10
2022-12-14T20:26:01.098Z,2.20
2022-12-14T20:28:28.178Z,2.20
2022-12-14T20:30:54.984Z,2.20
2022-12-14T20:33:26.496Z,2.10
2022-12-14T20:35:56.758Z,1.80
2022-12-14T20:38:23.506Z,1.80
2022-12-14T20:40:50.280Z,1.90
2022-12-14T20:43:17.027Z,2.00
2022-12-14T20:45:44.192Z,2.10
2022-12-14T20:48:11.654Z,2.00
2022-12-14T20:50:40.668Z,2.10
2022-12-14T20:53:07.414Z,2.10
2022-12-14T20:55:35.313Z,2.20
2022-12-14T20:58:02.099Z,2.20
2022-12-14T21:00:28.871Z,2.30
2022-12-14T21:02:55.794Z,2.30
2022-12-14T21:05:22.631Z,2.30
2022-12-14T21:07:49.401Z,2.30
2022-12-14T21:10:16.143Z,2.10
2022-12-14T21:12:42.882Z,2.00
2022-12-14T21:15:09.736Z,2.10
2022-12-14T21:17:36.565Z,2.20
2022-12-14T21:20:05.403Z,2.20
2022-12-14T21:22:32.541Z,2.20
2022-12-14T21:25:06.794Z,2.10
2022-12-14T21:27:38.885Z,2.10
2022-12-14T21:30:10.900Z,2.10
2022-12-14T21:32:38.200Z,2.20
2022-12-14T21:35:05.828Z,2.20
2022-12-14T21:37:32.660Z,2.00
2022-12-14T21:40:00.258Z,2.10
2022-12-14T21:42:27.019Z,2.10
2022-12-14T21:44:55.253Z,2.20
2022-12-14T21:47:28.268Z,2.20
2022-12-14T21:49:55.720Z,2.20
2022-12-14T21:52:25.182Z,2.20
2022-12-14T21:54:51.917Z,2.30
2022-12-14T21:57:40.088Z,2.30
2022-12-14T22:00:08.569Z,2.30
2022-12-14T22:02:35.536Z,2.30
2022-12-14T22:05:02.547Z,2.40
2022-12-14T22:07:31.795Z,2.40
2022-12-14T22:09:58.830Z,2.40
2022-12-14T22:12:25.902Z,2.40
2022-12-14T22:14:52.748Z,2.40
2022-12-14T22:17:19.473Z,2.30
2022-12-14T22:19:46.412Z,2.20
2022-12-14T22:22:17.879Z,2.10
2022-12-14T22:24:47.830Z,2.20
2022-12-14T22:27:14.969Z,2.30
2022-12-14T22:29:41.992Z,2.30
2022-12-14T22:32:13.301Z,2.30
2022-12-14T22:34:40.196Z,2.30
2022-12-14T22:37:07.100Z,2.30
2022-12-14T22:39:34.076Z,2.30
2022-12-14T22:42:01.162Z,2.30
2022-12-14T22:44:28.101Z,2.30
2022-12-14T22:46:54.864Z,2.30
2022-12-14T22:49:21.744Z,2.20
2022-12-14T22:51:48.620Z,2.30
2022-12-14T22:54:22.600Z,2.20
2022-12-14T22:56:56.737Z,2.20
2022-12-14T22:59:29.126Z,2.20
2022-12-14T23:01:56.259Z,2.20
2022-12-14T23:04:23.122Z,2.10
2022-12-14T23:06:50.017Z,2.20
2022-12-14T23:09:35.850Z,2.10
2022-12-14T23:12:22.072Z,2.10
2022-12-14T23:15:07.427Z,2.00
2022-12-14T23:17:53.625Z,2.00
2022-12-14T23:20:39.121Z,1.90
2022-12-14T23:23:26.134Z,1.90
2022-12-14T23:26:11.708Z,1.90
2022-12-14T23:28:57.198Z,1.80
2022-12-14T23:31:42.313Z,1.90
2022-12-14T23:34:27.537Z,1.80
2022-12-14T23:37:19.503Z,1.80
2022-12-14T23:40:06.159Z,1.90
2022-12-14T23:42:51.424Z,1.80
2022-12-14T23:45:36.875Z,1.70
2022-12-14T23:48:22.682Z,1.60
2022-12-14T23:51:07.987Z,1.60
2022-12-14T23:53:53.591Z,1.60
2022-12-14T23:56:38.920Z,1.60
2022-12-14T23:59:29.747Z,1.60
